sensor_id;sensor_type;location;lat;lon;timestamp;pressure;altitude;pressure_sealevel;temperature;humidity
45323;BME280;31382;50.200;8.674;2022-12-04T00:01:31;100333.09;;;4.81;67.86
45323;BME280;31382;50.200;8.674;2022-12-04T00:06:32;100312.63;;;4.72;67.69
45323;BME280;31382;50.200;8.674;2022-12-04T00:11:34;100318.78;;;4.63;68.19
45323;BME280;31382;50.200;8.674;2022-12-04T00:16:35;100316.41;;;4.69;67.85
45323;BME280;31382;50.200;8.674;2022-12-04T00:21:37;100316.84;;;4.65;68.11
45323;BME280;31382;50.200;8.674;2022-12-04T00:26:38;100312.63;;;4.62;68.03
45323;BME280;31382;50.200;8.674;2022-12-04T00:31:40;100325.66;;;4.65;67.71
45323;BME280;31382;50.200;8.674;2022-12-04T00:36:41;100312.91;;;4.59;68.07
45323;BME280;31382;50.200;8.674;2022-12-04T00:41:43;100328.03;;;4.59;68.18
45323;BME280;31382;50.200;8.674;2022-12-04T00:46:44;100329.44;;;4.63;67.74
45323;BME280;31382;50.200;8.674;2022-12-04T00:51:46;100336.16;;;4.57;67.90
45323;BME280;31382;50.200;8.674;2022-12-04T00:56:47;100337.53;;;4.51;68.11
45323;BME280;31382;50.200;8.674;2022-12-04T01:01:48;100339.63;;;4.48;68.48
45323;BME280;31382;50.200;8.674;2022-12-04T01:06:50;100336.41;;;4.54;67.58
45323;BME280;31382;50.200;8.674;2022-12-04T01:11:51;100326.47;;;4.56;67.71
45323;BME280;31382;50.200;8.674;2022-12-04T01:16:53;100326.63;;;4.54;67.94
45323;BME280;31382;50.200;8.674;2022-12-04T01:21:54;100308.97;;;4.63;67.68
45323;BME280;31382;50.200;8.674;2022-12-04T01:26:56;100302.25;;;4.59;67.78
45323;BME280;31382;50.200;8.674;2022-12-04T01:31:57;100297.63;;;4.51;68.22
45323;BME280;31382;50.200;8.674;2022-12-04T01:36:58;100287.66;;;4.53;68.00
45323;BME280;31382;50.200;8.674;2022-12-04T01:42:00;100283.34;;;4.52;67.80
45323;BME280;31382;50.200;8.674;2022-12-04T01:47:01;100279.97;;;4.50;68.16
45323;BME280;31382;50.200;8.674;2022-12-04T01:57:14;100292.16;;;4.43;68.09
45323;BME280;31382;50.200;8.674;2022-12-04T02:02:20;100289.75;;;4.40;68.10
45323;BME280;31382;50.200;8.674;2022-12-04T02:07:24;100292.59;;;4.48;68.06
45323;BME280;31382;50.200;8.674;2022-12-04T02:12:29;100307.44;;;4.51;67.83
45323;BME280;31382;50.200;8.674;2022-12-04T02:23:04;100306.72;;;4.49;67.84
45323;BME280;31382;50.200;8.674;2022-12-04T02:28:31;100314.41;;;4.42;68.20
45323;BME280;31382;50.200;8.674;2022-12-04T02:34:18;100307.53;;;4.40;68.03
45323;BME280;31382;50.200;8.674;2022-12-04T02:39:29;100306.84;;;4.47;68.29
45323;BME280;31382;50.200;8.674;2022-12-04T02:44:52;100311.75;;;4.42;68.26
45323;BME280;31382;50.200;8.674;2022-12-04T02:49:59;100317.06;;;4.42;68.09
45323;BME280;31382;50.200;8.674;2022-12-04T02:55:05;100318.47;;;4.56;68.12
45323;BME280;31382;50.200;8.674;2022-12-04T03:00:09;100307.56;;;4.49;68.04
45323;BME280;31382;50.200;8.674;2022-12-04T03:05:17;100297.19;;;4.46;68.06
45323;BME280;31382;50.200;8.674;2022-12-04T03:10:32;100290.19;;;4.45;68.03
45323;BME280;31382;50.200;8.674;2022-12-04T03:15:41;100292.59;;;4.48;68.24
45323;BME280;31382;50.200;8.674;2022-12-04T03:20:49;100291.47;;;4.51;68.10
45323;BME280;31382;50.200;8.674;2022-12-04T03:31:03;100292.16;;;4.43;68.24
45323;BME280;31382;50.200;8.674;2022-12-04T03:36:16;100295.34;;;4.37;67.81
45323;BME280;31382;50.200;8.674;2022-12-04T03:41:27;100290.75;;;4.39;68.18
45323;BME280;31382;50.200;8.674;2022-12-04T03:46:37;100281.94;;;4.48;67.82
45323;BME280;31382;50.200;8.674;2022-12-04T03:51:54;100286.25;;;4.40;68.36
45323;BME280;31382;50.200;8.674;2022-12-04T03:57:05;100285.81;;;4.44;67.63
45323;BME280;31382;50.200;8.674;2022-12-04T04:02:14;100286.81;;;4.43;68.20
45323;BME280;31382;50.200;8.674;2022-12-04T04:07:23;100281.22;;;4.46;68.06
45323;BME280;31382;50.200;8.674;2022-12-04T04:12:38;100276.06;;;4.54;68.07
45323;BME280;31382;50.200;8.674;2022-12-04T04:17:43;100279.53;;;4.45;67.99
45323;BME280;31382;50.200;8.674;2022-12-04T04:23:09;100274.91;;;4.47;67.96
45323;BME280;31382;50.200;8.674;2022-12-04T04:28:31;100265.97;;;4.48;67.92
45323;BME280;31382;50.200;8.674;2022-12-04T04:33:39;100257.81;;;4.40;67.93
45323;BME280;31382;50.200;8.674;2022-12-04T04:38:55;100267.75;;;4.38;68.06
45323;BME280;31382;50.200;8.674;2022-12-04T04:44:10;100269.59;;;4.37;68.18
45323;BME280;31382;50.200;8.674;2022-12-04T04:49:13;100267.22;;;4.34;67.89
45323;BME280;31382;50.200;8.674;2022-12-04T04:54:16;100275.31;;;4.33;68.12
45323;BME280;31382;50.200;8.674;2022-12-04T04:59:19;100282.06;;;4.37;68.37
45323;BME280;31382;50.200;8.674;2022-12-04T05:04:20;100287.94;;;4.41;68.21
45323;BME280;31382;50.200;8.674;2022-12-04T05:09:22;100291.44;;;4.31;68.35
45323;BME280;31382;50.200;8.674;2022-12-04T05:14:23;100288.63;;;4.33;68.17
45323;BME280;31382;50.200;8.674;2022-12-04T05:19:25;100285.97;;;4.33;68.24
45323;BME280;31382;50.200;8.674;2022-12-04T05:24:45;100282.88;;;4.28;68.10
45323;BME280;31382;50.200;8.674;2022-12-04T05:29:46;100271.53;;;4.26;68.38
45323;BME280;31382;50.200;8.674;2022-12-04T05:34:49;100269.00;;;4.24;68.09
45323;BME280;31382;50.200;8.674;2022-12-04T05:39:51;100274.59;;;4.21;68.26
45323;BME280;31382;50.200;8.674;2022-12-04T05:44:52;100271.94;;;4.21;68.01
45323;BME280;31382;50.200;8.674;2022-12-04T05:49:54;100264.63;;;4.13;68.23
45323;BME280;31382;50.200;8.674;2022-12-04T05:54:55;100274.03;;;4.17;68.34
45323;BME280;31382;50.200;8.674;2022-12-04T05:59:57;100280.88;;;4.20;68.05
45323;BME280;31382;50.200;8.674;2022-12-04T06:04:58;100278.06;;;4.12;68.33
45323;BME280;31382;50.200;8.674;2022-12-04T06:10:00;100275.69;;;4.09;68.19
45323;BME280;31382;50.200;8.674;2022-12-04T06:15:02;100285.75;;;4.05;68.01
45323;BME280;31382;50.200;8.674;2022-12-04T06:20:05;100283.66;;;3.99;67.71
45323;BME280;31382;50.200;8.674;2022-12-04T06:25:11;100292.34;;;4.01;68.02
45323;BME280;31382;50.200;8.674;2022-12-04T06:30:13;100300.16;;;4.03;68.09
45323;BME280;31382;50.200;8.674;2022-12-04T06:35:14;100286.16;;;4.01;67.94
45323;BME280;31382;50.200;8.674;2022-12-04T06:40:16;100294.84;;;4.03;68.10
45323;BME280;31382;50.200;8.674;2022-12-04T06:45:17;100286.47;;;4.07;68.01
45323;BME280;31382;50.200;8.674;2022-12-04T06:50:19;100281.41;;;4.04;67.90
45323;BME280;31382;50.200;8.674;2022-12-04T06:55:20;100279.31;;;4.08;67.89
45323;BME280;31382;50.200;8.674;2022-12-04T07:00:22;100279.19;;;4.09;67.96
45323;BME280;31382;50.200;8.674;2022-12-04T07:05:23;100278.50;;;4.07;68.08
45323;BME280;31382;50.200;8.674;2022-12-04T07:10:24;100280.72;;;4.12;68.07
45323;BME280;31382;50.200;8.674;2022-12-04T07:15:26;100282.00;;;4.17;67.54
45323;BME280;31382;50.200;8.674;2022-12-04T07:20:27;100282.44;;;4.13;67.75
45323;BME280;31382;50.200;8.674;2022-12-04T07:25:28;100274.88;;;4.18;67.53
45323;BME280;31382;50.200;8.674;2022-12-04T07:30:31;100275.19;;;4.25;67.59
45323;BME280;31382;50.200;8.674;2022-12-04T07:35:32;100269.69;;;4.26;67.67
45323;BME280;31382;50.200;8.674;2022-12-04T07:40:36;100275.44;;;4.22;67.69
45323;BME280;31382;50.200;8.674;2022-12-04T07:45:37;100270.13;;;4.22;67.71
45323;BME280;31382;50.200;8.674;2022-12-04T07:50:39;100264.09;;;4.20;67.65
45323;BME280;31382;50.200;8.674;2022-12-04T07:55:41;100275.19;;;4.25;67.84
45323;BME280;31382;50.200;8.674;2022-12-04T08:00:42;100274.75;;;4.29;67.70
45323;BME280;31382;50.200;8.674;2022-12-04T08:05:43;100274.19;;;4.26;68.07
45323;BME280;31382;50.200;8.674;2022-12-04T08:10:45;100284.97;;;4.34;67.85
45323;BME280;31382;50.200;8.674;2022-12-04T08:15:46;100289.22;;;4.36;67.95
45323;BME280;31382;50.200;8.674;2022-12-04T08:20:48;100296.75;;;4.41;67.95
45323;BME280;31382;50.200;8.674;2022-12-04T08:25:49;100303.22;;;4.48;67.99
45323;BME280;31382;50.200;8.674;2022-12-04T08:30:50;100299.31;;;4.52;67.86
45323;BME280;31382;50.200;8.674;2022-12-04T08:35:52;100295.09;;;4.60;67.76
45323;BME280;31382;50.200;8.674;2022-12-04T08:40:53;100298.47;;;4.62;68.17
45323;BME280;31382;50.200;8.674;2022-12-04T08:45:59;100293.13;;;4.52;68.29
45323;BME280;31382;50.200;8.674;2022-12-04T08:51:01;100283.19;;;4.54;68.55
45323;BME280;31382;50.200;8.674;2022-12-04T08:56:08;100276.75;;;4.56;68.32
45323;BME280;31382;50.200;8.674;2022-12-04T09:01:11;100281.38;;;4.54;68.86
45323;BME280;31382;50.200;8.674;2022-12-04T09:11:47;100272.13;;;4.59;68.95
45323;BME280;31382;50.200;8.674;2022-12-04T09:16:49;100266.38;;;4.73;68.81
45323;BME280;31382;50.200;8.674;2022-12-04T09:21:51;100262.59;;;4.75;68.98
45323;BME280;31382;50.200;8.674;2022-12-04T09:26:52;100270.00;;;4.82;69.20
45323;BME280;31382;50.200;8.674;2022-12-04T09:48:08;100265.94;;;4.87;69.21
45323;BME280;31382;50.200;8.674;2022-12-04T09:53:26;100271.84;;;4.81;69.45
45323;BME280;31382;50.200;8.674;2022-12-04T09:58:49;100249.56;;;4.92;69.05
45323;BME280;31382;50.200;8.674;2022-12-04T10:03:53;100261.19;;;5.01;69.00
45323;BME280;31382;50.200;8.674;2022-12-04T10:09:21;100261.59;;;5.06;68.78
45323;BME280;31382;50.200;8.674;2022-12-04T10:14:45;100261.59;;;5.06;69.42
45323;BME280;31382;50.200;8.674;2022-12-04T10:20:22;100252.03;;;5.13;68.79
45323;BME280;31382;50.200;8.674;2022-12-04T10:25:25;100251.75;;;5.16;68.92
45323;BME280;31382;50.200;8.674;2022-12-04T10:30:30;100251.06;;;5.24;69.73
45323;BME280;31382;50.200;8.674;2022-12-04T10:35:34;100239.53;;;5.23;69.08
45323;BME280;31382;50.200;8.674;2022-12-04T10:40:51;100236.59;;;5.26;68.74
45323;BME280;31382;50.200;8.674;2022-12-04T10:45:56;100223.97;;;5.28;69.25
45323;BME280;31382;50.200;8.674;2022-12-04T10:50:58;100217.78;;;5.38;68.57
45323;BME280;31382;50.200;8.674;2022-12-04T10:56:15;100218.56;;;5.48;68.39
45323;BME280;31382;50.200;8.674;2022-12-04T11:01:20;100215.44;;;5.52;68.47
45323;BME280;31382;50.200;8.674;2022-12-04T11:06:24;100206.34;;;5.55;68.25
45323;BME280;31382;50.200;8.674;2022-12-04T11:11:34;100195.81;;;5.53;68.75
45323;BME280;31382;50.200;8.674;2022-12-04T11:16:39;100188.59;;;5.64;68.32
45323;BME280;31382;50.200;8.674;2022-12-04T11:21:41;100183.13;;;5.65;68.16
45323;BME280;31382;50.200;8.674;2022-12-04T11:26:45;100174.06;;;5.76;68.48
45323;BME280;31382;50.200;8.674;2022-12-04T11:31:51;100167.63;;;5.79;68.02
45323;BME280;31382;50.200;8.674;2022-12-04T11:36:55;100165.69;;;5.71;68.18
45323;BME280;31382;50.200;8.674;2022-12-04T11:42:15;100159.38;;;5.72;68.26
45323;BME280;31382;50.200;8.674;2022-12-04T11:47:19;100151.38;;;5.72;68.56
45323;BME280;31382;50.200;8.674;2022-12-04T11:52:31;100147.72;;;5.73;68.21
45323;BME280;31382;50.200;8.674;2022-12-04T12:03:22;100142.69;;;5.88;67.89
45323;BME280;31382;50.200;8.674;2022-12-04T12:08:45;100140.00;;;5.98;67.30
45323;BME280;31382;50.200;8.674;2022-12-04T12:24:29;100154.34;;;5.97;67.52
45323;BME280;31382;50.200;8.674;2022-12-04T12:30:03;100171.19;;;5.97;67.58
45323;BME280;31382;50.200;8.674;2022-12-04T12:35:04;100183.50;;;5.98;67.42
45323;BME280;31382;50.200;8.674;2022-12-04T12:45:29;100166.00;;;5.95;67.11
45323;BME280;31382;50.200;8.674;2022-12-04T12:50:42;100176.50;;;5.97;67.47
45323;BME280;31382;50.200;8.674;2022-12-04T12:55:47;100161.50;;;5.96;67.54
45323;BME280;31382;50.200;8.674;2022-12-04T13:01:21;100166.81;;;5.96;67.63
45323;BME280;31382;50.200;8.674;2022-12-04T13:06:35;100168.94;;;5.92;67.19
45323;BME280;31382;50.200;8.674;2022-12-04T13:11:39;100166.41;;;5.91;67.60
45323;BME280;31382;50.200;8.674;2022-12-04T13:16:47;100155.75;;;5.91;67.09
45323;BME280;31382;50.200;8.674;2022-12-04T13:33:08;100134.34;;;5.83;67.53
45323;BME280;31382;50.200;8.674;2022-12-04T13:38:41;100131.50;;;5.84;67.46
45323;BME280;31382;50.200;8.674;2022-12-04T13:43:47;100127.53;;;5.88;66.95
45323;BME280;31382;50.200;8.674;2022-12-04T13:48:49;100120.53;;;5.87;67.27
45323;BME280;31382;50.200;8.674;2022-12-04T13:54:25;100111.69;;;5.87;67.24
45323;BME280;31382;50.200;8.674;2022-12-04T14:04:37;100115.94;;;5.80;66.93
45323;BME280;31382;50.200;8.674;2022-12-04T14:09:47;100105.91;;;5.91;67.04
45323;BME280;31382;50.200;8.674;2022-12-04T14:14:58;100104.66;;;5.86;67.52
45323;BME280;31382;50.200;8.674;2022-12-04T14:20:05;100096.13;;;5.82;67.61
45323;BME280;31382;50.200;8.674;2022-12-04T14:30:22;100093.03;;;5.87;67.48
45323;BME280;31382;50.200;8.674;2022-12-04T14:35:26;100104.13;;;5.82;67.78
45323;BME280;31382;50.200;8.674;2022-12-04T14:40:57;100112.53;;;5.87;67.34
45323;BME280;31382;50.200;8.674;2022-12-04T14:46:17;100123.72;;;5.73;67.53
45323;BME280;31382;50.200;8.674;2022-12-04T14:51:57;100117.69;;;5.71;67.36
45323;BME280;31382;50.200;8.674;2022-12-04T15:02:40;100128.19;;;5.72;68.00
45323;BME280;31382;50.200;8.674;2022-12-04T15:07:49;100134.69;;;5.70;67.88
45323;BME280;31382;50.200;8.674;2022-12-04T15:12:53;100135.38;;;5.72;68.00
45323;BME280;31382;50.200;8.674;2022-12-04T15:23:29;100133.84;;;5.69;67.64
45323;BME280;31382;50.200;8.674;2022-12-04T15:29:05;100137.34;;;5.70;68.02
45323;BME280;31382;50.200;8.674;2022-12-04T15:34:14;100138.78;;;5.64;67.94
45323;BME280;31382;50.200;8.674;2022-12-04T15:39:21;100141.84;;;5.69;67.76
45323;BME280;31382;50.200;8.674;2022-12-04T15:44:32;100134.63;;;5.80;67.37
45323;BME280;31382;50.200;8.674;2022-12-04T15:49:35;100136.81;;;5.84;67.28
45323;BME280;31382;50.200;8.674;2022-12-04T15:54:41;100142.84;;;5.86;67.46
45323;BME280;31382;50.200;8.674;2022-12-04T15:59:49;100144.53;;;5.87;67.34
45323;BME280;31382;50.200;8.674;2022-12-04T16:04:51;100148.50;;;5.83;67.58
45323;BME280;31382;50.200;8.674;2022-12-04T16:10:18;100143.69;;;5.87;67.42
45323;BME280;31382;50.200;8.674;2022-12-04T16:15:21;100154.38;;;5.87;67.51
45323;BME280;31382;50.200;8.674;2022-12-04T16:20:22;100147.75;;;5.91;67.46
45323;BME280;31382;50.200;8.674;2022-12-04T16:25:24;100148.63;;;5.82;68.33
45323;BME280;31382;50.200;8.674;2022-12-04T16:30:36;100150.47;;;5.81;67.78
45323;BME280;31382;50.200;8.674;2022-12-04T16:35:38;100161.19;;;5.71;68.05
45323;BME280;31382;50.200;8.674;2022-12-04T16:40:40;100160.50;;;5.69;68.02
45323;BME280;31382;50.200;8.674;2022-12-04T16:45:47;100146.16;;;5.70;67.71
45323;BME280;31382;50.200;8.674;2022-12-04T16:50:49;100151.50;;;5.70;68.54
45323;BME280;31382;50.200;8.674;2022-12-04T16:55:51;100143.81;;;5.67;68.42
45323;BME280;31382;50.200;8.674;2022-12-04T17:00:55;100138.03;;;5.72;68.54
45323;BME280;31382;50.200;8.674;2022-12-04T17:05:57;100132.22;;;5.76;68.39
45323;BME280;31382;50.200;8.674;2022-12-04T17:11:00;100135.44;;;5.80;68.25
45323;BME280;31382;50.200;8.674;2022-12-04T17:16:02;100125.94;;;5.78;68.20
45323;BME280;31382;50.200;8.674;2022-12-04T17:21:08;100122.84;;;5.72;68.17
45323;BME280;31382;50.200;8.674;2022-12-04T17:26:13;100126.53;;;5.71;68.33
45323;BME280;31382;50.200;8.674;2022-12-04T17:31:20;100126.69;;;5.70;69.24
45323;BME280;31382;50.200;8.674;2022-12-04T17:36:23;100120.56;;;5.60;68.93
45323;BME280;31382;50.200;8.674;2022-12-04T17:41:26;100118.78;;;5.50;68.90
45323;BME280;31382;50.200;8.674;2022-12-04T17:46:28;100107.56;;;5.47;69.20
45323;BME280;31382;50.200;8.674;2022-12-04T17:51:33;100105.50;;;5.41;69.27
45323;BME280;31382;50.200;8.674;2022-12-04T17:56:50;100105.41;;;5.32;69.29
45323;BME280;31382;50.200;8.674;2022-12-04T18:01:58;100094.66;;;5.24;69.71
45323;BME280;31382;50.200;8.674;2022-12-04T18:06:59;100092.81;;;5.25;70.13
45323;BME280;31382;50.200;8.674;2022-12-04T18:12:01;100094.38;;;5.27;69.66
45323;BME280;31382;50.200;8.674;2022-12-04T18:17:02;100092.69;;;5.26;70.14
45323;BME280;31382;50.200;8.674;2022-12-04T18:22:04;100108.69;;;5.26;69.71
45323;BME280;31382;50.200;8.674;2022-12-04T18:27:06;100095.81;;;5.22;69.95
45323;BME280;31382;50.200;8.674;2022-12-04T18:32:07;100086.44;;;5.18;70.55
45323;BME280;31382;50.200;8.674;2022-12-04T18:37:09;100093.16;;;5.22;70.58
45323;BME280;31382;50.200;8.674;2022-12-04T18:42:10;100108.13;;;5.23;70.37
45323;BME280;31382;50.200;8.674;2022-12-04T18:47:12;100115.16;;;5.24;70.26
45323;BME280;31382;50.200;8.674;2022-12-04T18:52:13;100114.69;;;5.28;70.17
45323;BME280;31382;50.200;8.674;2022-12-04T18:57:14;100104.59;;;5.32;70.47
45323;BME280;31382;50.200;8.674;2022-12-04T19:02:16;100094.63;;;5.34;70.48
45323;BME280;31382;50.200;8.674;2022-12-04T19:07:17;100107.34;;;5.40;70.13
45323;BME280;31382;50.200;8.674;2022-12-04T19:12:19;100118.00;;;5.40;70.02
45323;BME280;31382;50.200;8.674;2022-12-04T19:17:22;100123.06;;;5.43;70.44
45323;BME280;31382;50.200;8.674;2022-12-04T19:22:23;100131.88;;;5.44;70.14
45323;BME280;31382;50.200;8.674;2022-12-04T19:27:25;100143.25;;;5.46;70.29
45323;BME280;31382;50.200;8.674;2022-12-04T19:32:27;100139.28;;;5.50;70.60
45323;BME280;31382;50.200;8.674;2022-12-04T19:37:29;100139.13;;;5.51;70.13
45323;BME280;31382;50.200;8.674;2022-12-04T19:42:30;100135.19;;;5.55;70.52
45323;BME280;31382;50.200;8.674;2022-12-04T19:47:32;100149.31;;;5.66;69.88
45323;BME280;31382;50.200;8.674;2022-12-04T19:52:34;100151.44;;;5.80;69.72
45323;BME280;31382;50.200;8.674;2022-12-04T19:57:35;100137.13;;;5.81;69.97
45323;BME280;31382;50.200;8.674;2022-12-04T20:02:37;100140.19;;;5.86;69.38
45323;BME280;31382;50.200;8.674;2022-12-04T20:07:39;100145.28;;;5.80;70.13
45323;BME280;31382;50.200;8.674;2022-12-04T20:12:40;100151.44;;;5.80;70.46
45323;BME280;31382;50.200;8.674;2022-12-04T20:17:42;100157.47;;;5.82;69.84
45323;BME280;31382;50.200;8.674;2022-12-04T20:22:43;100144.81;;;5.84;70.35
45323;BME280;31382;50.200;8.674;2022-12-04T20:27:45;100154.59;;;5.93;69.97
45323;BME280;31382;50.200;8.674;2022-12-04T20:32:46;100151.34;;;6.00;69.30
45323;BME280;31382;50.200;8.674;2022-12-04T20:37:47;100161.06;;;6.01;69.85
45323;BME280;31382;50.200;8.674;2022-12-04T20:42:49;100166.38;;;6.01;70.01
45323;BME280;31382;50.200;8.674;2022-12-04T20:47:50;100183.63;;;6.06;69.53
45323;BME280;31382;50.200;8.674;2022-12-04T20:52:52;100184.81;;;6.12;69.49
45323;BME280;31382;50.200;8.674;2022-12-04T20:57:53;100185.22;;;5.99;69.93
45323;BME280;31382;50.200;8.674;2022-12-04T21:02:57;100178.66;;;5.84;70.56
45323;BME280;31382;50.200;8.674;2022-12-04T21:07:58;100182.16;;;5.84;70.27
45323;BME280;31382;50.200;8.674;2022-12-04T21:13:00;100184.31;;;5.81;70.22
45323;BME280;31382;50.200;8.674;2022-12-04T21:18:20;100183.38;;;5.72;70.16
45323;BME280;31382;50.200;8.674;2022-12-04T21:23:21;100182.91;;;5.76;70.45
45323;BME280;31382;50.200;8.674;2022-12-04T21:28:23;100192.84;;;5.84;70.48
45323;BME280;31382;50.200;8.674;2022-12-04T21:33:24;100197.06;;;5.87;69.98
45323;BME280;31382;50.200;8.674;2022-12-04T21:38:26;100195.50;;;5.84;69.98
45323;BME280;31382;50.200;8.674;2022-12-04T21:43:28;100195.13;;;5.79;69.94
45323;BME280;31382;50.200;8.674;2022-12-04T21:48:31;100195.41;;;5.76;71.03
45323;BME280;31382;50.200;8.674;2022-12-04T21:53:33;100203.63;;;5.65;70.57
45323;BME280;31382;50.200;8.674;2022-12-04T21:58:41;100195.91;;;5.62;71.19
45323;BME280;31382;50.200;8.674;2022-12-04T22:03:42;100209.16;;;5.53;71.49
45323;BME280;31382;50.200;8.674;2022-12-04T22:08:44;100202.25;;;5.51;71.61
45323;BME280;31382;50.200;8.674;2022-12-04T22:13:45;100196.25;;;5.49;71.66
45323;BME280;31382;50.200;8.674;2022-12-04T22:18:47;100198.09;;;5.39;71.68
45323;BME280;31382;50.200;8.674;2022-12-04T22:23:52;100205.97;;;5.40;71.68
45323;BME280;31382;50.200;8.674;2022-12-04T22:28:55;100200.78;;;5.39;71.90
45323;BME280;31382;50.200;8.674;2022-12-04T22:33:59;100193.38;;;5.32;72.21
45323;BME280;31382;50.200;8.674;2022-12-04T22:39:00;100200.28;;;5.25;72.48
45323;BME280;31382;50.200;8.674;2022-12-04T22:44:11;100207.97;;;5.28;72.37
45323;BME280;31382;50.200;8.674;2022-12-04T22:49:13;100206.00;;;5.30;72.06
45323;BME280;31382;50.200;8.674;2022-12-04T22:54:15;100205.03;;;5.31;72.54
45323;BME280;31382;50.200;8.674;2022-12-04T22:59:16;100195.78;;;5.26;72.47
45323;BME280;31382;50.200;8.674;2022-12-04T23:04:18;100197.31;;;5.28;72.56
45323;BME280;31382;50.200;8.674;2022-12-04T23:09:19;100192.53;;;5.32;72.90
45323;BME280;31382;50.200;8.674;2022-12-04T23:14:22;100199.28;;;5.26;73.49
45323;BME280;31382;50.200;8.674;2022-12-04T23:19:23;100200.56;;;5.22;73.40
45323;BME280;31382;50.200;8.674;2022-12-04T23:24:25;100199.03;;;5.20;73.77
45323;BME280;31382;50.200;8.674;2022-12-04T23:29:26;100202.94;;;5.25;74.36
45323;BME280;31382;50.200;8.674;2022-12-04T23:34:48;100211.47;;;5.29;73.74
45323;BME280;31382;50.200;8.674;2022-12-04T23:39:49;100218.50;;;5.30;73.93
45323;BME280;31382;50.200;8.674;2022-12-04T23:44:51;100224.25;;;5.25;74.45
45323;BME280;31382;50.200;8.674;2022-12-04T23:49:52;100224.97;;;5.27;74.58
45323;BME280;31382;50.200;8.674;2022-12-04T23:54:53;100226.06;;;5.25;74.29
45323;BME280;31382;50.200;8.674;2022-12-04T23:59:55;100221.88;;;5.22;74.65
